createdAt,value
2018-01-26T00:00:10.660Z,61.97
2018-01-26T00:02:38.697Z,52.77
2018-01-26T00:05:07.076Z,47.23
2018-01-26T00:07:35.433Z,55.90
2018-01-26T00:10:03.729Z,53.70
2018-01-26T00:12:32.764Z,49.73
2018-01-26T00:15:01.171Z,53.53
2018-01-26T00:17:30.260Z,58.03
2018-01-26T00:19:59.393Z,52.67
2018-01-26T00:22:27.664Z,59.33
2018-01-26T00:24:56.000Z,59.67
2018-01-26T00:27:24.314Z,55.70
2018-01-26T00:29:53.371Z,55.43
2018-01-26T00:32:21.676Z,54.80
2018-01-26T00:34:50.792Z,54.90
2018-01-26T00:37:19.057Z,51.70
2018-01-26T00:39:48.107Z,56.17
2018-01-26T00:42:16.456Z,53.63
2018-01-26T00:44:44.725Z,52.23
2018-01-26T00:47:13.029Z,53.07
2018-01-26T00:49:41.309Z,61.23
2018-01-26T00:52:09.607Z,51.53
2018-01-26T00:54:37.883Z,52.40
2018-01-26T00:57:06.956Z,57.73
2018-01-26T00:59:35.233Z,56.83
2018-01-26T01:02:03.508Z,51.90
2018-01-26T01:04:31.842Z,58.27
2018-01-26T01:07:00.891Z,53.13
2018-01-26T01:09:29.197Z,58.20
2018-01-26T01:11:57.467Z,59.97
2018-01-26T01:14:26.016Z,55.93
2018-01-26T01:16:54.300Z,54.53
2018-01-26T01:19:22.590Z,57.70
2018-01-26T01:21:50.902Z,47.83
2018-01-26T01:24:19.926Z,47.20
2018-01-26T01:26:48.928Z,58.23
2018-01-26T01:29:17.194Z,43.90
2018-01-26T01:31:45.464Z,56.80
2018-01-26T01:34:13.766Z,61.53
2018-01-26T01:36:42.037Z,55.93
2018-01-26T01:39:10.686Z,53.37
2018-01-26T01:41:38.986Z,55.07
2018-01-26T01:44:08.020Z,50.83
2018-01-26T01:46:36.339Z,54.33
2018-01-26T01:49:16.136Z,58.80
2018-01-26T01:51:44.457Z,57.77
2018-01-26T01:54:12.733Z,48.47
2018-01-26T01:56:41.034Z,51.00
2018-01-26T01:59:10.077Z,53.53
2018-01-26T02:01:38.349Z,51.57
2018-01-26T02:04:06.684Z,53.70
2018-01-26T02:06:34.952Z,48.90
2018-01-26T02:09:04.025Z,45.30
2018-01-26T02:11:32.311Z,41.83
2018-01-26T02:14:00.616Z,47.17
2018-01-26T02:16:28.901Z,48.10
2018-01-26T02:18:58.332Z,56.23
2018-01-26T02:21:26.609Z,50.07
2018-01-26T02:23:54.889Z,55.33
2018-01-26T02:26:23.189Z,47.93
2018-01-26T02:28:51.456Z,56.43
2018-01-26T02:31:19.751Z,49.80
2018-01-26T02:33:48.025Z,45.07
2018-01-26T02:36:16.326Z,51.20
2018-01-26T02:38:44.600Z,57.87
2018-01-26T02:41:12.929Z,49.33
2018-01-26T02:43:41.970Z,39.30
2018-01-26T02:46:10.261Z,32.50
2018-01-26T02:48:39.338Z,56.50
2018-01-26T02:51:07.601Z,41.37
2018-01-26T02:53:35.899Z,53.73
2018-01-26T02:56:04.152Z,55.50
2018-01-26T02:58:32.453Z,48.37
2018-01-26T03:01:00.712Z,49.63
2018-01-26T03:03:29.026Z,42.17
2018-01-26T03:05:58.065Z,48.83
2018-01-26T03:08:26.496Z,48.07
2018-01-26T03:10:54.765Z,50.37
2018-01-26T03:13:23.050Z,55.73
2018-01-26T03:15:51.511Z,49.63
2018-01-26T03:18:19.773Z,55.43
2018-01-26T03:20:48.088Z,62.97
2018-01-26T03:23:16.365Z,56.67
2018-01-26T03:25:44.643Z,52.00
2018-01-26T03:28:13.703Z,48.80
2018-01-26T03:30:41.985Z,46.07
2018-01-26T03:33:10.276Z,48.20
2018-01-26T03:35:38.552Z,52.40
2018-01-26T03:38:06.868Z,49.60
2018-01-26T03:40:35.936Z,56.40
2018-01-26T03:43:04.212Z,58.03
2018-01-26T03:45:32.508Z,42.73
2018-01-26T03:48:01.560Z,42.80
2018-01-26T03:50:29.846Z,53.40
2018-01-26T03:52:58.122Z,56.47
2018-01-26T03:55:26.421Z,45.40
2018-01-26T03:57:55.456Z,54.60
2018-01-26T04:00:23.780Z,54.63
2018-01-26T04:02:52.043Z,44.27
2018-01-26T04:05:20.300Z,56.77
2018-01-26T04:07:48.603Z,56.63
2018-01-26T04:10:16.881Z,51.07
2018-01-26T04:13:05.657Z,50.90
2018-01-26T04:15:34.361Z,51.90
2018-01-26T04:18:03.428Z,57.83
2018-01-26T04:20:31.712Z,44.07
2018-01-26T04:23:00.017Z,51.40
2018-01-26T04:25:29.100Z,52.67
2018-01-26T04:27:57.378Z,54.13
2018-01-26T04:30:25.674Z,52.30
2018-01-26T04:32:54.703Z,55.33
2018-01-26T04:35:22.992Z,57.93
2018-01-26T04:37:51.274Z,49.83
2018-01-26T04:40:19.572Z,63.30
2018-01-26T04:42:47.851Z,56.07
2018-01-26T04:45:16.134Z,50.30
2018-01-26T04:47:44.434Z,61.47
2018-01-26T04:50:13.496Z,48.80
2018-01-26T04:52:41.799Z,53.13
2018-01-26T04:55:10.086Z,58.40
2018-01-26T04:57:39.147Z,60.47
2018-01-26T05:00:07.429Z,58.77
2018-01-26T05:02:35.733Z,51.63
2018-01-26T05:05:04.013Z,56.50
2018-01-26T05:07:33.067Z,56.17
2018-01-26T05:10:01.383Z,55.87
2018-01-26T05:12:30.435Z,56.83
2018-01-26T05:14:58.734Z,58.37
2018-01-26T05:17:27.002Z,50.10
2018-01-26T05:19:55.312Z,57.23
2018-01-26T05:22:24.375Z,55.90
2018-01-26T05:24:52.644Z,54.03
2018-01-26T05:27:20.953Z,64.80
2018-01-26T05:29:50.018Z,54.83
2018-01-26T05:32:18.327Z,52.20
2018-01-26T05:34:46.613Z,53.30
2018-01-26T05:37:14.918Z,56.20
2018-01-26T05:39:43.950Z,56.70
2018-01-26T05:42:12.250Z,57.80
2018-01-26T05:44:40.530Z,61.57
2018-01-26T05:47:08.799Z,55.27
2018-01-26T05:49:37.109Z,59.13
2018-01-26T05:52:06.141Z,56.53
2018-01-26T05:54:34.458Z,57.43
2018-01-26T05:57:02.726Z,52.33
2018-01-26T05:59:31.033Z,49.80
2018-01-26T06:02:00.082Z,52.87
2018-01-26T06:04:28.810Z,48.00
2018-01-26T06:06:57.087Z,51.17
2018-01-26T06:09:25.373Z,60.40
2018-01-26T06:11:54.446Z,52.60
2018-01-26T06:14:22.721Z,62.97
2018-01-26T06:16:51.024Z,56.13
2018-01-26T06:19:20.077Z,53.43
2018-01-26T06:21:48.371Z,53.87
2018-01-26T06:24:16.656Z,52.07
2018-01-26T06:26:45.345Z,59.53
2018-01-26T06:29:13.612Z,52.60
2018-01-26T06:31:41.884Z,58.03
2018-01-26T06:34:10.182Z,52.47
2018-01-26T06:36:38.463Z,59.83
2018-01-26T06:39:06.880Z,53.80
2018-01-26T06:41:35.186Z,53.30
2018-01-26T06:44:03.495Z,47.10
2018-01-26T06:46:31.760Z,49.80
2018-01-26T06:49:00.038Z,47.90
2018-01-26T06:51:28.333Z,58.50
2018-01-26T06:53:57.326Z,55.33
2018-01-26T06:56:25.637Z,49.20
2018-01-26T06:58:53.906Z,57.00
2018-01-26T07:01:22.974Z,56.17
2018-01-26T07:03:51.265Z,56.27
2018-01-26T07:06:19.581Z,47.60
2018-01-26T07:08:47.866Z,44.00
2018-01-26T07:11:16.166Z,46.50
2018-01-26T07:13:44.885Z,51.83
2018-01-26T07:16:13.167Z,62.73
2018-01-26T07:18:42.243Z,54.17
2018-01-26T07:21:10.539Z,48.47
2018-01-26T07:23:39.612Z,53.10
2018-01-26T07:26:07.898Z,42.23
2018-01-26T07:28:36.254Z,56.37
2018-01-26T07:31:04.516Z,58.13
2018-01-26T07:33:32.781Z,51.67
2018-01-26T07:36:01.061Z,49.53
2018-01-26T07:38:29.345Z,51.73
2018-01-26T07:40:57.696Z,47.00
2018-01-26T07:43:26.728Z,46.17
2018-01-26T07:45:55.388Z,60.93
2018-01-26T07:48:23.678Z,48.90
2018-01-26T07:50:52.037Z,55.90
2018-01-26T07:53:20.356Z,49.30
2018-01-26T07:55:48.803Z,47.63
2018-01-26T07:58:17.857Z,53.67
2018-01-26T08:00:46.213Z,52.10
2018-01-26T08:03:14.488Z,48.53
2018-01-26T08:05:42.798Z,48.07
2018-01-26T08:08:11.117Z,52.67
2018-01-26T08:10:39.385Z,48.10
2018-01-26T08:13:07.662Z,52.23
2018-01-26T08:15:35.948Z,51.03
2018-01-26T08:18:04.242Z,49.90
2018-01-26T08:20:32.559Z,43.00
2018-01-26T08:23:00.820Z,42.70
2018-01-26T08:25:29.127Z,39.93
2018-01-26T08:27:57.420Z,46.10
2018-01-26T08:30:26.494Z,44.20
2018-01-26T08:32:54.760Z,46.40
2018-01-26T08:35:23.049Z,45.30
2018-01-26T08:37:51.350Z,47.07
2018-01-26T08:40:20.452Z,48.67
2018-01-26T08:42:48.713Z,55.13
2018-01-26T08:45:20.422Z,40.77
2018-01-26T08:47:49.046Z,48.30
2018-01-26T08:50:17.360Z,52.80
2018-01-26T08:52:47.386Z,48.50
2018-01-26T08:55:17.138Z,50.07
2018-01-26T08:57:45.408Z,54.43
2018-01-26T09:00:13.711Z,52.33
2018-01-26T09:02:41.988Z,58.90
2018-01-26T09:05:10.289Z,50.80
2018-01-26T09:07:39.335Z,51.00
2018-01-26T09:10:07.638Z,48.43
2018-01-26T09:12:35.919Z,50.80
2018-01-26T09:15:04.195Z,45.53
2018-01-26T09:17:32.509Z,50.00
2018-01-26T09:20:00.817Z,49.73
2018-01-26T09:22:29.168Z,52.13
2018-01-26T09:24:58.193Z,49.10
2018-01-26T09:27:26.488Z,50.07
2018-01-26T09:29:54.764Z,51.60
2018-01-26T09:32:23.842Z,57.07
2018-01-26T09:34:52.157Z,57.73
2018-01-26T09:37:20.477Z,50.30
2018-01-26T09:39:48.775Z,44.20
2018-01-26T09:42:17.078Z,49.87
2018-01-26T09:44:45.394Z,45.20
2018-01-26T09:47:14.484Z,50.60
2018-01-26T09:49:42.764Z,47.03
2018-01-26T09:52:11.877Z,51.70
2018-01-26T09:54:40.201Z,48.07
2018-01-26T09:57:08.475Z,60.80
2018-01-26T09:59:36.753Z,49.33
2018-01-26T10:02:05.086Z,52.20
2018-01-26T10:04:34.130Z,51.87
2018-01-26T10:07:02.439Z,50.23
2018-01-26T10:09:31.488Z,51.23
2018-01-26T10:11:59.795Z,50.87
2018-01-26T10:14:28.089Z,57.63
2018-01-26T10:16:56.365Z,56.40
2018-01-26T10:19:24.686Z,60.67
2018-01-26T10:21:52.958Z,57.40
2018-01-26T10:24:21.258Z,52.37
2018-01-26T10:26:49.543Z,55.53
2018-01-26T10:29:17.834Z,48.97
2018-01-26T10:31:46.134Z,59.33
2018-01-26T10:34:14.445Z,52.57
2018-01-26T10:36:42.733Z,47.90
2018-01-26T10:39:11.038Z,44.00
2018-01-26T10:41:39.311Z,47.07
2018-01-26T10:44:08.481Z,57.13
2018-01-26T10:46:36.781Z,49.87
2018-01-26T10:49:05.064Z,53.00
2018-01-26T10:51:33.367Z,55.00
2018-01-26T10:54:01.662Z,54.90
2018-01-26T10:56:29.973Z,49.00
2018-01-26T10:58:58.365Z,47.90
2018-01-26T11:01:27.086Z,51.60
2018-01-26T11:03:55.373Z,49.17
2018-01-26T11:06:23.677Z,46.60
2018-01-26T11:08:52.757Z,50.07
2018-01-26T11:11:21.076Z,51.20
2018-01-26T11:13:49.376Z,54.13
2018-01-26T11:16:17.637Z,49.67
2018-01-26T11:18:45.973Z,54.93
2018-01-26T11:21:14.269Z,46.97
2018-01-26T11:23:42.557Z,51.40
2018-01-26T11:26:10.862Z,50.87
2018-01-26T11:28:39.137Z,46.00
2018-01-26T11:31:07.433Z,47.07
2018-01-26T11:33:35.710Z,49.87
2018-01-26T11:36:04.046Z,49.00
2018-01-26T11:38:32.324Z,44.90
2018-01-26T11:41:00.606Z,50.13
2018-01-26T11:43:28.913Z,50.40
2018-01-26T11:45:57.192Z,46.13
2018-01-26T11:48:25.509Z,50.50
2018-01-26T11:50:53.806Z,52.27
2018-01-26T11:53:22.879Z,44.53
2018-01-26T11:55:51.204Z,44.93
2018-01-26T11:58:19.448Z,45.10
2018-01-26T12:00:48.521Z,56.63
2018-01-26T12:03:16.852Z,46.20
2018-01-26T12:05:45.176Z,51.23
2018-01-26T12:08:13.539Z,48.57
2018-01-26T12:10:41.882Z,52.00
2018-01-26T12:13:10.170Z,47.03
2018-01-26T12:15:38.503Z,47.05
2018-01-26T12:18:06.782Z,48.90
2018-01-26T12:20:35.812Z,48.93
2018-01-26T12:23:04.146Z,51.13
2018-01-26T12:25:32.412Z,48.83
2018-01-26T12:28:00.727Z,46.90
2018-01-26T12:30:29.789Z,46.90
2018-01-26T12:32:58.147Z,48.43
2018-01-26T12:35:26.431Z,47.80
2018-01-26T12:37:54.715Z,44.70
2018-01-26T12:40:23.040Z,50.57
2018-01-26T12:42:51.325Z,45.43
2018-01-26T12:45:19.626Z,48.80
2018-01-26T12:47:47.921Z,44.90
2018-01-26T12:50:17.187Z,50.20
2018-01-26T12:55:44.267Z,48.10
2018-01-26T13:01:13.894Z,51.87
2018-01-26T13:03:42.233Z,46.20
2018-01-26T13:06:10.548Z,50.77
2018-01-26T13:08:38.854Z,47.20
2018-01-26T13:11:07.185Z,48.90
2018-01-26T13:13:35.545Z,48.47
2018-01-26T13:16:03.956Z,43.33
2018-01-26T13:18:32.317Z,52.03
2018-01-26T13:21:02.128Z,54.33
2018-01-26T13:23:30.435Z,55.03
2018-01-26T13:25:58.709Z,53.07
2018-01-26T13:28:27.367Z,49.53
2018-01-26T13:30:56.425Z,49.37
2018-01-26T13:33:24.741Z,52.57
2018-01-26T13:35:53.337Z,56.53
2018-01-26T13:38:21.643Z,51.80
2018-01-26T13:40:49.957Z,50.07
2018-01-26T13:43:18.264Z,52.33
2018-01-26T13:45:46.576Z,54.70
2018-01-26T13:48:14.872Z,53.80
2018-01-26T13:50:43.169Z,46.13
2018-01-26T13:53:11.476Z,60.33
2018-01-26T13:55:41.360Z,52.33
2018-01-26T13:58:09.728Z,52.13
2018-01-26T14:00:38.006Z,44.33
2018-01-26T14:03:06.651Z,47.63
2018-01-26T14:05:35.723Z,49.47
2018-01-26T14:08:04.022Z,52.80
2018-01-26T14:10:33.094Z,53.67
2018-01-26T14:13:01.497Z,56.07
2018-01-26T14:15:30.575Z,55.37
2018-01-26T14:17:58.852Z,54.23
2018-01-26T14:20:27.216Z,54.00
2018-01-26T14:22:55.557Z,57.17
2018-01-26T14:25:23.890Z,54.13
2018-01-26T14:27:52.208Z,60.73
2018-01-26T14:30:20.570Z,49.10
2018-01-26T14:32:48.873Z,51.10
2018-01-26T14:35:17.695Z,54.43
2018-01-26T14:37:46.278Z,53.40
2018-01-26T14:40:14.570Z,50.60
2018-01-26T14:42:42.952Z,57.20
2018-01-26T14:45:11.225Z,54.43
2018-01-26T14:47:39.553Z,58.83
2018-01-26T14:50:07.880Z,55.80
2018-01-26T14:52:37.697Z,50.60
2018-01-26T14:55:05.996Z,56.70
2018-01-26T14:57:35.064Z,64.93
2018-01-26T15:00:03.378Z,52.97
2018-01-26T15:02:32.503Z,54.50
2018-01-26T15:05:00.813Z,59.27
2018-01-26T15:07:30.013Z,55.97
2018-01-26T15:09:58.296Z,50.20
2018-01-26T15:12:26.597Z,63.00
2018-01-26T15:14:54.874Z,55.50
2018-01-26T15:17:23.176Z,59.37
2018-01-26T15:19:51.456Z,56.50
2018-01-26T15:22:19.775Z,58.57
2018-01-26T15:24:48.138Z,58.40
2018-01-26T15:27:16.496Z,56.27
2018-01-26T15:29:44.794Z,53.93
2018-01-26T15:32:13.059Z,57.67
2018-01-26T15:34:41.368Z,52.37
2018-01-26T15:37:09.642Z,56.67
2018-01-26T15:39:37.970Z,56.13
2018-01-26T15:42:07.006Z,56.53
2018-01-26T15:44:35.322Z,55.40
2018-01-26T15:47:03.593Z,56.20
2018-01-26T15:49:32.389Z,61.23
2018-01-26T15:52:00.661Z,57.93
2018-01-26T15:54:28.979Z,54.50
2018-01-26T15:56:57.284Z,56.50
2018-01-26T15:59:25.565Z,59.50
2018-01-26T16:01:53.871Z,59.07
2018-01-26T16:04:22.220Z,55.90
2018-01-26T16:06:50.554Z,59.80
2018-01-26T16:09:18.916Z,60.53
2018-01-26T16:11:47.207Z,60.87
2018-01-26T16:14:17.199Z,57.47
2018-01-26T16:16:45.530Z,61.80
2018-01-26T16:19:13.884Z,58.30
2018-01-26T16:21:42.250Z,60.13
2018-01-26T16:24:10.576Z,123.80
2018-01-26T16:26:38.890Z,64.03
2018-01-26T16:29:07.506Z,71.07
2018-01-26T16:31:35.788Z,67.90
2018-01-26T16:34:04.936Z,63.97
2018-01-26T16:36:33.267Z,61.03
2018-01-26T16:39:02.337Z,56.20
2018-01-26T16:41:30.657Z,58.93
2018-01-26T16:43:58.949Z,64.97
2018-01-26T16:46:27.574Z,62.77
2018-01-26T16:48:55.926Z,59.87
2018-01-26T16:51:24.267Z,65.73
2018-01-26T16:53:53.368Z,65.67
2018-01-26T16:56:21.652Z,63.97
2018-01-26T16:58:50.333Z,62.80
2018-01-26T17:01:18.629Z,65.37
2018-01-26T17:03:46.953Z,63.43
2018-01-26T17:06:15.267Z,64.37
2018-01-26T17:08:43.568Z,62.40
2018-01-26T17:11:12.136Z,59.50
2018-01-26T17:13:40.463Z,59.17
2018-01-26T17:16:08.847Z,69.77
2018-01-26T17:18:37.167Z,69.70
2018-01-26T17:21:05.446Z,64.33
2018-01-26T17:23:34.548Z,61.20
2018-01-26T17:26:03.630Z,58.37
2018-01-26T17:28:33.030Z,52.40
2018-01-26T17:31:02.092Z,72.10
2018-01-26T17:33:30.387Z,63.63
2018-01-26T17:35:58.687Z,62.10
2018-01-26T17:38:27.803Z,54.13
2018-01-26T17:40:56.862Z,60.97
2018-01-26T17:43:25.151Z,49.47
2018-01-26T17:45:53.728Z,55.63
2018-01-26T17:48:22.224Z,65.93
2018-01-26T17:50:50.509Z,65.30
2018-01-26T17:53:18.835Z,61.83
2018-01-26T17:55:47.122Z,60.00
2018-01-26T17:58:15.453Z,68.07
2018-01-26T18:00:43.800Z,66.77
2018-01-26T18:03:12.490Z,62.37
2018-01-26T18:05:40.779Z,67.03
2018-01-26T18:08:09.958Z,68.47
2018-01-26T18:10:38.261Z,42.87
2018-01-26T18:13:07.372Z,70.50
2018-01-26T18:15:36.444Z,76.73
2018-01-26T18:18:05.454Z,64.00
2018-01-26T18:20:34.822Z,63.93
2018-01-26T18:23:03.111Z,64.47
2018-01-26T18:25:31.543Z,69.77
2018-01-26T18:28:00.660Z,78.20
2018-01-26T18:30:29.804Z,79.40
2018-01-26T18:32:58.126Z,60.83
2018-01-26T18:35:26.435Z,65.27
2018-01-26T18:37:55.049Z,82.70
2018-01-26T18:40:24.405Z,61.00
2018-01-26T18:42:52.733Z,72.05
2018-01-26T18:45:21.925Z,63.83
2018-01-26T18:47:50.569Z,72.17
2018-01-26T18:50:19.012Z,64.07
2018-01-26T18:52:47.306Z,63.33
2018-01-26T18:55:15.665Z,68.53
2018-01-26T18:57:44.745Z,85.77
2018-01-26T19:00:14.119Z,66.30
2018-01-26T19:02:42.404Z,72.70
2018-01-26T19:05:10.707Z,70.50
2018-01-26T19:07:39.870Z,74.73
2018-01-26T19:10:08.190Z,76.30
2018-01-26T19:12:37.343Z,76.10
2018-01-26T19:15:05.646Z,80.80
2018-01-26T19:17:34.990Z,71.33
2018-01-26T19:20:03.277Z,68.47
2018-01-26T19:22:31.567Z,83.50
2018-01-26T19:24:59.884Z,79.87
2018-01-26T19:27:28.532Z,80.13
2018-01-26T19:29:56.877Z,76.80
2018-01-26T19:32:25.941Z,70.00
2018-01-26T19:34:54.536Z,71.73
2018-01-26T19:37:23.688Z,73.43
2018-01-26T19:39:51.968Z,75.80
2018-01-26T19:42:21.252Z,83.20
2018-01-26T19:44:49.630Z,78.30
2018-01-26T19:47:18.124Z,68.70
2018-01-26T19:49:46.460Z,75.07
2018-01-26T19:52:15.604Z,75.23
2018-01-26T19:54:43.910Z,74.50
2018-01-26T19:57:12.493Z,77.83
2018-01-26T19:59:40.975Z,78.20
2018-01-26T20:02:10.108Z,78.97
2018-01-26T20:04:44.312Z,73.97
2018-01-26T20:07:28.285Z,78.17
2018-01-26T20:09:57.477Z,74.73
2018-01-26T20:12:25.776Z,72.30
2018-01-26T20:14:54.255Z,86.93
2018-01-26T20:17:22.552Z,83.90
2018-01-26T20:19:51.190Z,83.17
2018-01-26T20:22:19.763Z,80.07
2018-01-26T20:24:48.208Z,83.50
2018-01-26T20:27:16.713Z,73.57
2018-01-26T20:29:45.170Z,82.73
2018-01-26T20:32:19.478Z,82.93
2018-01-26T20:34:48.569Z,78.93
2018-01-26T20:37:17.357Z,71.77
2018-01-26T20:39:45.678Z,83.37
2018-01-26T20:42:14.119Z,84.70
2018-01-26T20:44:42.556Z,84.13
2018-01-26T20:47:10.856Z,86.77
2018-01-26T20:49:40.016Z,78.87
2018-01-26T20:52:08.349Z,97.00
2018-01-26T20:54:37.763Z,81.23
2018-01-26T20:57:06.072Z,83.33
2018-01-26T20:59:34.373Z,91.30
2018-01-26T21:02:02.705Z,84.53
2018-01-26T21:04:31.028Z,84.83
2018-01-26T21:07:00.140Z,82.40
2018-01-26T21:09:29.235Z,102.37
2018-01-26T21:11:57.567Z,85.10
2018-01-26T21:14:25.886Z,92.17
2018-01-26T21:16:54.464Z,83.93
2018-01-26T21:19:22.778Z,87.43
2018-01-26T21:21:51.117Z,83.40
2018-01-26T21:24:19.435Z,76.53
2018-01-26T21:26:47.839Z,87.30
2018-01-26T21:29:16.173Z,86.57
2018-01-26T21:31:45.290Z,78.37
2018-01-26T21:34:14.378Z,89.40
2018-01-26T21:36:43.550Z,84.67
2018-01-26T21:39:12.207Z,80.80
2018-01-26T21:41:40.649Z,85.50
2018-01-26T21:44:09.741Z,106.47
2018-01-26T21:46:38.176Z,85.50
2018-01-26T21:49:06.491Z,87.23
2018-01-26T21:51:34.804Z,98.73
2018-01-26T21:54:03.125Z,96.27
2018-01-26T21:56:31.985Z,95.37
2018-01-26T21:59:01.080Z,96.20
2018-01-26T22:01:29.426Z,98.20
2018-01-26T22:03:58.728Z,101.87
2018-01-26T22:06:32.856Z,106.23
2018-01-26T22:09:01.196Z,99.90
2018-01-26T22:11:29.474Z,90.63
2018-01-26T22:13:57.785Z,83.40
2018-01-26T22:16:26.869Z,101.30
2018-01-26T22:18:56.248Z,93.83
2018-01-26T22:21:24.955Z,95.93
2018-01-26T22:23:53.259Z,93.43
2018-01-26T22:26:21.580Z,101.03
2018-01-26T22:28:49.872Z,110.97
2018-01-26T22:31:18.196Z,93.03
2018-01-26T22:33:46.502Z,107.20
2018-01-26T22:36:14.827Z,98.73
2018-01-26T22:38:43.883Z,108.30
2018-01-26T22:41:12.436Z,82.93
2018-01-26T22:43:40.826Z,102.73
2018-01-26T22:46:09.104Z,101.90
2018-01-26T22:48:37.456Z,105.30
2018-01-26T22:51:06.561Z,82.87
2018-01-26T22:53:34.870Z,108.43
2018-01-26T22:56:03.207Z,104.70
2018-01-26T22:58:31.922Z,99.60
2018-01-26T23:01:00.195Z,87.27
2018-01-26T23:03:28.624Z,112.57
2018-01-26T23:05:56.933Z,101.83
2018-01-26T23:08:25.228Z,93.13
2018-01-26T23:10:53.519Z,95.43
2018-01-26T23:13:21.865Z,90.80
2018-01-26T23:15:51.235Z,89.07
2018-01-26T23:18:19.546Z,85.37
2018-01-26T23:20:47.815Z,81.03
2018-01-26T23:23:16.961Z,83.77
2018-01-26T23:25:45.212Z,87.50
2018-01-26T23:28:13.545Z,79.97
2018-01-26T23:30:41.805Z,87.33
2018-01-26T23:33:10.121Z,98.00
2018-01-26T23:35:38.394Z,90.27
2018-01-26T23:38:07.797Z,108.20
2018-01-26T23:40:36.084Z,104.03
2018-01-26T23:43:05.150Z,86.13
2018-01-26T23:45:33.447Z,88.33
2018-01-26T23:48:02.506Z,100.73
2018-01-26T23:50:30.900Z,108.57
2018-01-26T23:52:59.210Z,113.03
2018-01-26T23:55:28.609Z,107.90
2018-01-26T23:57:56.894Z,98.87
